Terminal Aerodrome Forecast
Issued by NWS Blacksburg, VA

Current Version | Previous Version | Text Only | Print | Product List | Glossary Off
Versions: 1 2 3 4 5 6 7 8 9 10 11 12 13 14 15 16 17 18 19 20 21 22 23 24 25 26

000
FTUS41 KRNK 271731
TAFBLF
TAF
KBLF 271731Z 2718/2818 VRB04KT P6SM BKN035
     FM280400 VRB03KT P6SM SCT060
      TEMPO 2808/2812 2SM BR SCT007
     FM281400 16005KT P6SM SCT035=

USA.gov is the U.S. government's official web portal to all federal, state and local government web resources and services.